Time;durP1;ratioP1;P1;durP2;ratioP2;P2;SDS_P1;SDS_P2;PMS_P1;PMS_P2;Temp;Humidity;BMP_temperature;BMP_pressure;BME280_temperature;BME280_humidity;BME280_pressure;Samples;Min_cycle;Max_cycle;Signal;HPM_P1;HPM_P2
2022/04/13 00:05:51;;;;;;;;;2.50;2.50;;;;;;;;2;261077428;261077428;-81
2022/04/13 00:14:52;;;;;;;;;1.50;1.50;;;;;;;;2;261076531;261076531;-79
2022/04/13 00:23:07;;;;;;;;;2.00;2.00;;;;;;;;2;261077209;261077209;-80
2022/04/13 00:32:08;;;;;;;;;0.00;0.00;;;;;;;;2;261078096;261078096;-79
2022/04/13 00:40:23;;;;;;;;;2.50;2.50;;;;;;;;2;261076507;261076507;-80
2022/04/13 00:49:25;;;;;;;;;12.00;0.00;;;;;;;;2;261078028;261078028;-80
2022/04/13 00:57:42;;;;;;;;;0.50;0.50;;;;;;;;2;261077610;261077610;-80
2022/04/13 01:06:43;;;;;;;;;1.50;1.50;;;;;;;;2;261075394;261075394;-80
2022/04/13 01:18:19;;;;;;;;;2.00;2.00;;;;;;;;2;261079383;261079383;-79
2022/04/13 01:27:19;;;;;;;;;1.00;1.00;;;;;;;;2;261073796;261073796;-80
2022/04/13 01:35:34;;;;;;;;;4.00;0.00;;;;;;;;2;261076225;261076225;-79
2022/04/13 01:44:35;;;;;;;;;2.50;2.50;;;;;;;;2;261077390;261077390;-79
2022/04/13 01:52:50;;;;;;;;;1.50;1.50;;;;;;;;2;261077167;261077167;-79
2022/04/13 02:01:51;;;;;;;;;2.50;0.00;;;;;;;;2;261077217;261077217;-79
2022/04/13 02:10:06;;;;;;;;;1.50;1.50;;;;;;;;2;261076104;261076104;-80
2022/04/13 02:19:07;;;;;;;;;2.00;2.00;;;;;;;;2;261076744;261076744;-78
2022/04/13 02:27:23;;;;;;;;;12.00;3.50;;;;;;;;2;261078547;261078547;-79
2022/04/13 02:36:23;;;;;;;;;11.50;2.50;;;;;;;;2;261077597;261077597;-79
2022/04/13 02:44:38;;;;;;;;;3.00;3.00;;;;;;;;2;261075671;261075671;-80
2022/04/13 02:53:39;;;;;;;;;2.50;2.50;;;;;;;;2;261075221;261075221;-80
2022/04/13 03:01:54;;;;;;;;;1.50;1.50;;;;;;;;2;261076188;261076188;-80
2022/04/13 03:10:55;;;;;;;;;2.00;2.00;;;;;;;;2;261076287;261076287;-78
2022/04/13 03:19:11;;;;;;;;;1.00;1.00;;;;;;;;2;261075092;261075092;-79
2022/04/13 03:28:11;;;;;;;;;2.00;2.00;;;;;;;;2;261076834;261076834;-79
2022/04/13 03:36:26;;;;;;;;;3.00;3.00;;;;;;;;2;261078886;261078886;-79
2022/04/13 03:45:27;;;;;;;;;16.00;4.00;;;;;;;;2;261075701;261075701;-78
2022/04/13 03:53:42;;;;;;;;;4.00;4.00;;;;;;;;2;261078073;261078073;-78
2022/04/13 04:02:43;;;;;;;;;2.50;2.50;;;;;;;;2;261075994;261075994;-79
2022/04/13 04:10:59;;;;;;;;;3.50;3.50;;;;;;;;2;261077253;261077253;-79
2022/04/13 04:19:59;;;;;;;;;3.50;3.50;;;;;;;;2;261078106;261078106;-79
2022/04/13 04:28:15;;;;;;;;;8.00;8.00;;;;;;;;2;261076230;261076230;-79
2022/04/13 04:37:15;;;;;;;;;7.50;3.50;;;;;;;;2;261077288;261077288;-79
2022/04/13 04:45:30;;;;;;;;;3.50;3.50;;;;;;;;2;261074914;261074914;-80
2022/04/13 04:54:31;;;;;;;;;5.50;5.50;;;;;;;;2;261080516;261080516;-79
2022/04/13 05:02:48;;;;;;;;;4.00;4.00;;;;;;;;2;261076159;261076159;-79
2022/04/13 05:11:48;;;;;;;;;9.00;9.00;;;;;;;;2;261077654;261077654;-79
2022/04/13 05:20:07;;;;;;;;;9.50;6.50;;;;;;;;2;261076229;261076229;-79
2022/04/13 05:29:08;;;;;;;;;4.50;4.50;;;;;;;;2;261079848;261079848;-79
2022/04/13 05:37:23;;;;;;;;;2.00;2.00;;;;;;;;2;261080567;261080567;-79
2022/04/13 05:46:23;;;;;;;;;3.50;3.50;;;;;;;;2;261077099;261077099;-81
2022/04/13 05:54:39;;;;;;;;;7.00;3.00;;;;;;;;2;261084737;261084737;-81
2022/04/13 06:03:39;;;;;;;;;5.00;5.00;;;;;;;;2;261077142;261077142;-81
2022/04/13 06:11:55;;;;;;;;;5.50;5.50;;;;;;;;2;261076527;261076527;-80
2022/04/13 06:20:55;;;;;;;;;8.00;8.00;;;;;;;;2;261094099;261094099;-81
2022/04/13 06:29:11;;;;;;;;;6.50;6.50;;;;;;;;2;261074834;261074834;-81
2022/04/13 06:38:14;;;;;;;;;21.00;9.50;;;;;;;;2;261077770;261077770;-84
2022/04/13 06:46:31;;;;;;;;;17.50;6.00;;;;;;;;2;261078628;261078628;-83
2022/04/13 06:55:32;;;;;;;;;7.50;7.50;;;;;;;;2;261076936;261076936;-83
2022/04/13 07:03:47;;;;;;;;;15.50;11.00;;;;;;;;2;261077850;261077850;-82
2022/04/13 07:12:48;;;;;;;;;9.00;9.00;;;;;;;;2;261087503;261087503;-83
2022/04/13 07:21:03;;;;;;;;;18.50;7.50;;;;;;;;2;261080553;261080553;-83
2022/04/13 07:30:04;;;;;;;;;10.00;10.00;;;;;;;;2;261081304;261081304;-83
2022/04/13 07:38:19;;;;;;;;;6.50;6.50;;;;;;;;2;261079355;261079355;-83
2022/04/13 07:47:21;;;;;;;;;10.00;10.00;;;;;;;;2;261086056;261086056;-83
2022/04/13 07:55:36;;;;;;;;;21.00;10.00;;;;;;;;2;261077074;261077074;-83
2022/04/13 08:04:37;;;;;;;;;23.00;12.00;;;;;;;;2;261080808;261080808;-83
2022/04/13 08:12:52;;;;;;;;;18.50;10.00;;;;;;;;2;261076767;261076767;-83
2022/04/13 08:21:53;;;;;;;;;12.50;12.50;;;;;;;;2;261076090;261076090;-82
2022/04/13 08:30:08;;;;;;;;;6.00;6.00;;;;;;;;2;261078518;261078518;-83
2022/04/13 08:39:13;;;;;;;;;6.00;6.00;;;;;;;;2;261077623;261077623;-83
2022/04/13 08:47:31;;;;;;;;;7.50;7.50;;;;;;;;2;261075915;261075915;-82
2022/04/13 08:56:34;;;;;;;;;9.00;9.00;;;;;;;;2;260732878;260732878;-82
2022/04/13 09:04:51;;;;;;;;;8.00;8.00;;;;;;;;2;261078897;261078897;-81
2022/04/13 09:13:51;;;;;;;;;24.00;12.00;;;;;;;;2;261077348;261077348;-82
2022/04/13 09:22:08;;;;;;;;;7.00;7.00;;;;;;;;2;261076754;261076754;-81
2022/04/13 09:31:08;;;;;;;;;13.50;13.50;;;;;;;;2;261075188;261075188;-80
2022/04/13 09:39:25;;;;;;;;;9.50;9.50;;;;;;;;2;261078178;261078178;-80
2022/04/13 09:48:27;;;;;;;;;8.00;8.00;;;;;;;;2;261072110;261072110;-81
2022/04/13 09:56:44;;;;;;;;;5.50;5.50;;;;;;;;2;261074293;261074293;-81
2022/04/13 10:05:46;;;;;;;;;13.50;13.50;;;;;;;;2;261076192;261076192;-81
2022/04/13 10:14:02;;;;;;;;;22.50;10.50;;;;;;;;2;261074266;261074266;-81
2022/04/13 10:23:03;;;;;;;;;15.50;15.50;;;;;;;;2;261079292;261079292;-83
2022/04/13 10:31:19;;;;;;;;;21.00;9.00;;;;;;;;2;261078205;261078205;-83
2022/04/13 10:40:20;;;;;;;;;15.50;15.50;;;;;;;;2;261078505;261078505;-82
2022/04/13 10:48:40;;;;;;;;;10.50;10.50;;;;;;;;2;261077900;261077900;-82
2022/04/13 10:57:53;;;;;;;;;9.00;9.00;;;;;;;;2;261083135;261083135;-82
2022/04/13 11:06:09;;;;;;;;;4.00;4.00;;;;;;;;2;261078487;261078487;-83
2022/04/13 11:15:10;;;;;;;;;14.00;5.50;;;;;;;;2;261079052;261079052;-79
2022/04/13 11:23:46;;;;;;;;;7.50;4.50;;;;;;;;2;261084891;261084891;-80
2022/04/13 11:32:46;;;;;;;;;12.00;12.00;;;;;;;;2;261077599;261077599;-78
2022/04/13 11:41:08;;;;;;;;;12.50;11.00;;;;;;;;2;261076603;261076603;-81
2022/04/13 11:50:12;;;;;;;;;8.50;8.50;;;;;;;;2;261078345;261078345;-80
2022/04/13 11:58:29;;;;;;;;;22.50;17.00;;;;;;;;2;261075408;261075408;-81
2022/04/13 12:07:30;;;;;;;;;8.00;8.00;;;;;;;;2;261076604;261076604;-80
2022/04/13 12:15:52;;;;;;;;;8.50;8.50;;;;;;;;2;261075659;261075659;-80
2022/04/13 12:25:03;;;;;;;;;8.50;8.50;;;;;;;;2;261075775;261075775;-81
2022/04/13 12:33:23;;;;;;;;;20.50;9.50;;;;;;;;2;261075577;261075577;-80
2022/04/13 12:42:23;;;;;;;;;5.50;5.50;;;;;;;;2;261076041;261076041;-79
2022/04/13 12:50:53;;;;;;;;;9.50;9.50;;;;;;;;2;261076089;261076089;-79
2022/04/13 12:59:53;;;;;;;;;8.50;8.50;;;;;;;;2;261076261;261076261;-80
2022/04/13 13:08:09;;;;;;;;;5.00;5.00;;;;;;;;2;261077356;261077356;-81
2022/04/13 13:17:16;;;;;;;;;5.00;5.00;;;;;;;;2;261078570;261078570;-79
2022/04/13 13:25:39;;;;;;;;;3.00;3.00;;;;;;;;2;261077959;261077959;-79
2022/04/13 13:34:47;;;;;;;;;17.50;2.50;;;;;;;;2;261075792;261075792;-79
2022/04/13 13:43:06;;;;;;;;;4.00;4.00;;;;;;;;2;261076150;261076150;-77
2022/04/13 13:52:07;;;;;;;;;4.50;4.50;;;;;;;;2;261075894;261075894;-81
2022/04/13 14:00:23;;;;;;;;;12.50;8.50;;;;;;;;2;261076485;261076485;-79
2022/04/13 14:18:35;;;;;;;;;3.00;3.00;;;;;;;;2;261082091;261082091;-80
2022/04/13 14:27:36;;;;;;;;;6.00;6.00;;;;;;;;2;261077235;261077235;-78
2022/04/13 14:36:01;;;;;;;;;8.00;8.00;;;;;;;;2;261081098;261081098;-80
2022/04/13 14:45:01;;;;;;;;;3.00;3.00;;;;;;;;2;261080467;261080467;-80
2022/04/13 14:53:19;;;;;;;;;3.00;3.00;;;;;;;;2;261075391;261075391;-80
2022/04/13 15:02:24;;;;;;;;;15.00;3.00;;;;;;;;2;261081523;261081523;-79
2022/04/13 15:10:42;;;;;;;;;1.00;1.00;;;;;;;;2;261082481;261082481;-80
2022/04/13 15:19:42;;;;;;;;;2.00;2.00;;;;;;;;2;261080852;261080852;-80
2022/04/13 15:27:58;;;;;;;;;1.00;1.00;;;;;;;;2;261080884;261080884;-79
2022/04/13 15:36:58;;;;;;;;;3.50;3.50;;;;;;;;2;261077195;261077195;-79
2022/04/13 15:45:19;;;;;;;;;3.00;3.00;;;;;;;;2;261077814;261077814;-80
2022/04/13 15:54:20;;;;;;;;;3.00;3.00;;;;;;;;2;261077221;261077221;-81
2022/04/13 16:02:35;;;;;;;;;3.00;3.00;;;;;;;;2;261075617;261075617;-81
2022/04/13 16:11:43;;;;;;;;;4.00;4.00;;;;;;;;2;261078426;261078426;-82
2022/04/13 16:19:58;;;;;;;;;4.00;2.00;;;;;;;;2;261076549;261076549;-81
2022/04/13 16:29:01;;;;;;;;;2.50;2.50;;;;;;;;2;261076818;261076818;-81
2022/04/13 16:37:17;;;;;;;;;6.00;6.00;;;;;;;;2;261077604;261077604;-81
2022/04/13 16:46:18;;;;;;;;;7.00;7.00;;;;;;;;2;261077618;261077618;-81
2022/04/13 16:54:33;;;;;;;;;0.50;0.50;;;;;;;;2;261072973;261072973;-82
2022/04/13 17:03:37;;;;;;;;;7.00;7.00;;;;;;;;2;261079308;261079308;-81
2022/04/13 17:11:52;;;;;;;;;9.00;9.00;;;;;;;;2;261074385;261074385;-81
2022/04/13 17:20:59;;;;;;;;;6.50;6.50;;;;;;;;2;261075361;261075361;-81
2022/04/13 17:29:19;;;;;;;;;6.00;6.00;;;;;;;;2;261082342;261082342;-80
2022/04/13 17:38:20;;;;;;;;;10.00;10.00;;;;;;;;2;261081221;261081221;-79
2022/04/13 17:46:35;;;;;;;;;8.50;4.50;;;;;;;;2;261077869;261077869;-80
2022/04/13 17:55:37;;;;;;;;;7.00;7.00;;;;;;;;2;261075282;261075282;-81
2022/04/13 18:03:55;;;;;;;;;7.00;7.00;;;;;;;;2;261076252;261076252;-82
2022/04/13 18:12:55;;;;;;;;;8.50;8.50;;;;;;;;2;261078389;261078389;-80
2022/04/13 18:21:11;;;;;;;;;16.00;10.50;;;;;;;;2;261078951;261078951;-81
2022/04/13 19:07:20;;;;;;;;;4.50;4.50;;;;;;;;2;261077804;261077804;-80
2022/04/13 19:15:35;;;;;;;;;4.00;4.00;;;;;;;;2;261074895;261074895;-81
2022/04/13 19:24:41;;;;;;;;;11.00;11.00;;;;;;;;2;261078315;261078315;-81
2022/04/13 19:32:56;;;;;;;;;6.00;6.00;;;;;;;;2;261076111;261076111;-81
2022/04/13 19:42:08;;;;;;;;;5.50;5.50;;;;;;;;2;261078823;261078823;-81
2022/04/13 19:50:41;;;;;;;;;9.50;9.50;;;;;;;;2;261078717;261078717;-81
2022/04/13 19:59:52;;;;;;;;;3.50;3.50;;;;;;;;2;261081551;261081551;-81
2022/04/13 20:08:10;;;;;;;;;5.50;5.50;;;;;;;;2;261074265;261074265;-82
2022/04/13 20:17:44;;;;;;;;;;;;;;;;;;;;;
2022/04/13 20:26:13;;;;;;;;;;;;;;;;;;;;;
2022/04/13 20:54:21;;;;;;;;;13.50;10.50;;;;;;;;2;261080067;261080067;-80
2022/04/13 21:02:36;;;;;;;;;20.50;9.50;;;;;;;;2;261090442;261090442;-80
2022/04/13 21:11:36;;;;;;;;;10.00;10.00;;;;;;;;2;261081643;261081643;-81
2022/04/13 21:19:52;;;;;;;;;5.00;5.00;;;;;;;;2;261082286;261082286;-81
2022/04/13 21:28:53;;;;;;;;;4.50;4.50;;;;;;;;2;261083359;261083359;-81
2022/04/13 21:37:08;;;;;;;;;4.50;4.50;;;;;;;;2;261094141;261094141;-81
2022/04/13 21:46:09;;;;;;;;;19.00;7.00;;;;;;;;2;261075693;261075693;-80
2022/04/13 21:54:24;;;;;;;;;6.50;6.50;;;;;;;;2;261080166;261080166;-80
2022/04/13 22:03:25;;;;;;;;;3.00;3.00;;;;;;;;2;261077716;261077716;-79
2022/04/13 22:11:40;;;;;;;;;17.50;6.50;;;;;;;;2;261076219;261076219;-79
2022/04/13 22:20:45;;;;;;;;;7.00;3.00;;;;;;;;2;261076890;261076890;-80
2022/04/13 22:29:00;;;;;;;;;11.00;11.00;;;;;;;;2;261076279;261076279;-86
2022/04/13 22:38:01;;;;;;;;;6.00;6.00;;;;;;;;2;261082618;261082618;-81
2022/04/13 22:46:17;;;;;;;;;12.00;4.50;;;;;;;;2;261081167;261081167;-81
2022/04/13 22:55:17;;;;;;;;;5.00;5.00;;;;;;;;2;261079109;261079109;-80
2022/04/13 23:03:34;;;;;;;;;12.50;10.50;;;;;;;;2;261079519;261079519;-82
2022/04/13 23:12:34;;;;;;;;;6.50;6.50;;;;;;;;2;261078309;261078309;-81
2022/04/13 23:20:50;;;;;;;;;17.00;5.00;;;;;;;;2;261079018;261079018;-81
2022/04/13 23:29:52;;;;;;;;;17.00;5.50;;;;;;;;2;261074175;261074175;-80
2022/04/13 23:38:08;;;;;;;;;3.50;3.50;;;;;;;;2;261081389;261081389;-81
2022/04/13 23:47:11;;;;;;;;;0.00;0.00;;;;;;;;2;261082916;261082916;-80
2022/04/13 23:55:30;;;;;;;;;5.00;5.00;;;;;;;;2;261085556;261085556;-80
